sensor_id;sensor_type;location;lat;lon;timestamp;P1;durP1;ratioP1;P2;durP2;ratioP2
69226;SDS011;56334;52.398;7.552;2023-02-15T00:01:15;30.15;;;13.88;;
69226;SDS011;56334;52.398;7.552;2023-02-15T00:03:41;29.98;;;13.23;;
69226;SDS011;56334;52.398;7.552;2023-02-15T00:06:08;35.17;;;13.70;;
69226;SDS011;56334;52.398;7.552;2023-02-15T00:08:34;32.30;;;13.13;;
69226;SDS011;56334;52.398;7.552;2023-02-15T00:11:07;32.65;;;14.23;;
69226;SDS011;56334;52.398;7.552;2023-02-15T00:13:33;28.58;;;13.38;;
69226;SDS011;56334;52.398;7.552;2023-02-15T00:16:05;30.50;;;14.20;;
69226;SDS011;56334;52.398;7.552;2023-02-15T00:18:32;35.97;;;15.05;;
69226;SDS011;56334;52.398;7.552;2023-02-15T00:21:03;30.08;;;12.75;;
69226;SDS011;56334;52.398;7.552;2023-02-15T00:23:29;32.67;;;14.13;;
69226;SDS011;56334;52.398;7.552;2023-02-15T00:26:09;29.83;;;12.75;;
69226;SDS011;56334;52.398;7.552;2023-02-15T00:28:35;31.65;;;12.60;;
69226;SDS011;56334;52.398;7.552;2023-02-15T00:31:03;32.63;;;13.50;;
69226;SDS011;56334;52.398;7.552;2023-02-15T00:33:31;30.50;;;13.10;;
69226;SDS011;56334;52.398;7.552;2023-02-15T00:35:58;30.08;;;13.45;;
69226;SDS011;56334;52.398;7.552;2023-02-15T00:38:24;29.75;;;12.88;;
69226;SDS011;56334;52.398;7.552;2023-02-15T00:40:54;31.45;;;12.55;;
69226;SDS011;56334;52.398;7.552;2023-02-15T00:43:20;28.63;;;12.77;;
69226;SDS011;56334;52.398;7.552;2023-02-15T00:45:46;27.90;;;10.65;;
69226;SDS011;56334;52.398;7.552;2023-02-15T00:48:13;27.75;;;11.80;;
69226;SDS011;56334;52.398;7.552;2023-02-15T00:50:39;29.58;;;13.20;;
69226;SDS011;56334;52.398;7.552;2023-02-15T00:53:05;28.70;;;11.88;;
69226;SDS011;56334;52.398;7.552;2023-02-15T00:55:31;30.42;;;12.57;;
69226;SDS011;56334;52.398;7.552;2023-02-15T00:57:57;28.58;;;12.25;;
69226;SDS011;56334;52.398;7.552;2023-02-15T01:00:23;31.05;;;12.85;;
69226;SDS011;56334;52.398;7.552;2023-02-15T01:02:49;27.48;;;12.07;;
69226;SDS011;56334;52.398;7.552;2023-02-15T01:05:15;26.65;;;12.18;;
69226;SDS011;56334;52.398;7.552;2023-02-15T01:07:41;28.40;;;12.38;;
69226;SDS011;56334;52.398;7.552;2023-02-15T01:10:07;33.60;;;13.07;;
69226;SDS011;56334;52.398;7.552;2023-02-15T01:12:34;31.42;;;12.45;;
69226;SDS011;56334;52.398;7.552;2023-02-15T01:15:01;24.23;;;11.45;;
69226;SDS011;56334;52.398;7.552;2023-02-15T01:17:27;23.75;;;8.88;;
69226;SDS011;56334;52.398;7.552;2023-02-15T01:19:53;28.23;;;11.88;;
69226;SDS011;56334;52.398;7.552;2023-02-15T01:22:20;28.73;;;13.05;;
69226;SDS011;56334;52.398;7.552;2023-02-15T01:24:48;27.70;;;12.23;;
69226;SDS011;56334;52.398;7.552;2023-02-15T01:27:14;25.15;;;10.68;;
69226;SDS011;56334;52.398;7.552;2023-02-15T01:29:40;27.42;;;12.15;;
69226;SDS011;56334;52.398;7.552;2023-02-15T01:32:06;31.60;;;12.27;;
69226;SDS011;56334;52.398;7.552;2023-02-15T01:34:33;30.73;;;12.05;;
69226;SDS011;56334;52.398;7.552;2023-02-15T01:37:00;30.73;;;12.40;;
69226;SDS011;56334;52.398;7.552;2023-02-15T01:39:26;26.33;;;11.43;;
69226;SDS011;56334;52.398;7.552;2023-02-15T01:41:52;28.75;;;11.75;;
69226;SDS011;56334;52.398;7.552;2023-02-15T01:47:03;28.95;;;11.25;;
69226;SDS011;56334;52.398;7.552;2023-02-15T01:49:29;29.38;;;11.55;;
69226;SDS011;56334;52.398;7.552;2023-02-15T01:51:58;24.70;;;9.45;;
69226;SDS011;56334;52.398;7.552;2023-02-15T01:54:29;28.65;;;12.20;;
69226;SDS011;56334;52.398;7.552;2023-02-15T01:56:58;29.63;;;12.93;;
69226;SDS011;56334;52.398;7.552;2023-02-15T01:59:25;30.52;;;12.73;;
69226;SDS011;56334;52.398;7.552;2023-02-15T02:01:52;27.10;;;12.23;;
69226;SDS011;56334;52.398;7.552;2023-02-15T02:05:20;28.65;;;13.27;;
69226;SDS011;56334;52.398;7.552;2023-02-15T02:07:17;25.52;;;11.00;;
69226;SDS011;56334;52.398;7.552;2023-02-15T02:09:45;28.70;;;12.10;;
69226;SDS011;56334;52.398;7.552;2023-02-15T02:12:11;28.08;;;10.88;;
69226;SDS011;56334;52.398;7.552;2023-02-15T02:14:38;26.75;;;10.60;;
69226;SDS011;56334;52.398;7.552;2023-02-15T02:17:16;26.45;;;11.27;;
69226;SDS011;56334;52.398;7.552;2023-02-15T02:20:30;25.67;;;10.48;;
69226;SDS011;56334;52.398;7.552;2023-02-15T02:22:42;24.42;;;10.27;;
69226;SDS011;56334;52.398;7.552;2023-02-15T02:28:33;25.70;;;11.05;;
69226;SDS011;56334;52.398;7.552;2023-02-15T02:33:36;28.92;;;12.23;;
69226;SDS011;56334;52.398;7.552;2023-02-15T02:39:33;22.30;;;9.95;;
69226;SDS011;56334;52.398;7.552;2023-02-15T02:41:50;25.10;;;10.40;;
69226;SDS011;56334;52.398;7.552;2023-02-15T02:46:54;27.88;;;11.02;;
69226;SDS011;56334;52.398;7.552;2023-02-15T02:49:30;31.27;;;11.75;;
69226;SDS011;56334;52.398;7.552;2023-02-15T02:52:01;27.45;;;11.80;;
69226;SDS011;56334;52.398;7.552;2023-02-15T02:54:27;52.90;;;14.30;;
69226;SDS011;56334;52.398;7.552;2023-02-15T02:56:54;33.63;;;11.68;;
69226;SDS011;56334;52.398;7.552;2023-02-15T02:59:32;25.65;;;11.13;;
69226;SDS011;56334;52.398;7.552;2023-02-15T03:02:03;29.27;;;11.73;;
69226;SDS011;56334;52.398;7.552;2023-02-15T03:04:35;27.17;;;11.30;;
69226;SDS011;56334;52.398;7.552;2023-02-15T03:07:03;28.08;;;11.70;;
69226;SDS011;56334;52.398;7.552;2023-02-15T03:09:31;26.48;;;10.35;;
69226;SDS011;56334;52.398;7.552;2023-02-15T03:12:00;26.00;;;11.77;;
69226;SDS011;56334;52.398;7.552;2023-02-15T03:14:27;28.60;;;11.52;;
69226;SDS011;56334;52.398;7.552;2023-02-15T03:16:54;28.90;;;12.38;;
69226;SDS011;56334;52.398;7.552;2023-02-15T03:19:25;26.92;;;10.90;;
69226;SDS011;56334;52.398;7.552;2023-02-15T03:21:55;24.63;;;10.43;;
69226;SDS011;56334;52.398;7.552;2023-02-15T03:25:15;26.65;;;11.82;;
69226;SDS011;56334;52.398;7.552;2023-02-15T03:27:15;27.02;;;11.27;;
69226;SDS011;56334;52.398;7.552;2023-02-15T03:29:44;28.17;;;11.63;;
69226;SDS011;56334;52.398;7.552;2023-02-15T03:32:12;26.10;;;9.93;;
69226;SDS011;56334;52.398;7.552;2023-02-15T03:34:40;24.63;;;10.35;;
69226;SDS011;56334;52.398;7.552;2023-02-15T03:39:38;27.75;;;11.48;;
69226;SDS011;56334;52.398;7.552;2023-02-15T03:44:32;25.02;;;10.60;;
69226;SDS011;56334;52.398;7.552;2023-02-15T03:49:29;26.90;;;9.40;;
69226;SDS011;56334;52.398;7.552;2023-02-15T03:51:57;29.52;;;11.40;;
69226;SDS011;56334;52.398;7.552;2023-02-15T03:54:25;24.02;;;9.82;;
69226;SDS011;56334;52.398;7.552;2023-02-15T03:57:07;24.65;;;10.35;;
69226;SDS011;56334;52.398;7.552;2023-02-15T03:59:53;25.95;;;10.00;;
69226;SDS011;56334;52.398;7.552;2023-02-15T04:02:39;24.25;;;10.68;;
69226;SDS011;56334;52.398;7.552;2023-02-15T04:05:06;25.67;;;11.93;;
69226;SDS011;56334;52.398;7.552;2023-02-15T04:07:32;26.30;;;10.93;;
69226;SDS011;56334;52.398;7.552;2023-02-15T04:10:00;25.73;;;10.63;;
69226;SDS011;56334;52.398;7.552;2023-02-15T04:12:44;26.02;;;11.40;;
69226;SDS011;56334;52.398;7.552;2023-02-15T04:15:13;29.98;;;11.00;;
69226;SDS011;56334;52.398;7.552;2023-02-15T04:17:58;23.58;;;10.27;;
69226;SDS011;56334;52.398;7.552;2023-02-15T04:20:24;26.00;;;10.65;;
69226;SDS011;56334;52.398;7.552;2023-02-15T04:23:08;24.88;;;10.20;;
69226;SDS011;56334;52.398;7.552;2023-02-15T04:25:53;30.33;;;10.55;;
69226;SDS011;56334;52.398;7.552;2023-02-15T04:28:19;24.92;;;10.00;;
69226;SDS011;56334;52.398;7.552;2023-02-15T04:30:46;23.63;;;9.52;;
69226;SDS011;56334;52.398;7.552;2023-02-15T04:33:13;24.00;;;10.57;;
69226;SDS011;56334;52.398;7.552;2023-02-15T04:35:43;25.55;;;11.18;;
69226;SDS011;56334;52.398;7.552;2023-02-15T04:38:10;28.13;;;11.70;;
69226;SDS011;56334;52.398;7.552;2023-02-15T04:40:36;26.63;;;11.02;;
69226;SDS011;56334;52.398;7.552;2023-02-15T04:43:02;28.33;;;11.15;;
69226;SDS011;56334;52.398;7.552;2023-02-15T04:45:28;24.13;;;9.98;;
69226;SDS011;56334;52.398;7.552;2023-02-15T04:47:54;26.67;;;12.10;;
69226;SDS011;56334;52.398;7.552;2023-02-15T04:50:21;30.83;;;12.43;;
69226;SDS011;56334;52.398;7.552;2023-02-15T04:52:47;27.23;;;11.13;;
69226;SDS011;56334;52.398;7.552;2023-02-15T04:55:13;28.77;;;11.15;;
69226;SDS011;56334;52.398;7.552;2023-02-15T04:57:39;26.20;;;11.75;;
69226;SDS011;56334;52.398;7.552;2023-02-15T05:00:05;29.23;;;12.27;;
69226;SDS011;56334;52.398;7.552;2023-02-15T05:02:33;25.05;;;10.30;;
69226;SDS011;56334;52.398;7.552;2023-02-15T05:04:59;24.08;;;9.93;;
69226;SDS011;56334;52.398;7.552;2023-02-15T05:07:26;25.35;;;11.27;;
69226;SDS011;56334;52.398;7.552;2023-02-15T05:09:52;29.60;;;12.27;;
69226;SDS011;56334;52.398;7.552;2023-02-15T05:12:18;24.70;;;10.73;;
69226;SDS011;56334;52.398;7.552;2023-02-15T05:14:44;27.58;;;11.30;;
69226;SDS011;56334;52.398;7.552;2023-02-15T05:17:10;23.77;;;10.68;;
69226;SDS011;56334;52.398;7.552;2023-02-15T05:19:36;23.10;;;10.48;;
69226;SDS011;56334;52.398;7.552;2023-02-15T05:22:03;26.52;;;11.73;;
69226;SDS011;56334;52.398;7.552;2023-02-15T05:24:29;23.48;;;9.90;;
69226;SDS011;56334;52.398;7.552;2023-02-15T05:27:14;24.08;;;10.30;;
69226;SDS011;56334;52.398;7.552;2023-02-15T05:29:58;24.55;;;10.43;;
69226;SDS011;56334;52.398;7.552;2023-02-15T05:32:26;27.27;;;11.20;;
69226;SDS011;56334;52.398;7.552;2023-02-15T05:34:52;26.30;;;11.30;;
69226;SDS011;56334;52.398;7.552;2023-02-15T05:37:18;26.98;;;10.35;;
69226;SDS011;56334;52.398;7.552;2023-02-15T05:39:44;27.58;;;12.15;;
69226;SDS011;56334;52.398;7.552;2023-02-15T05:42:10;23.90;;;10.48;;
69226;SDS011;56334;52.398;7.552;2023-02-15T05:44:36;27.55;;;11.15;;
69226;SDS011;56334;52.398;7.552;2023-02-15T05:47:02;28.10;;;11.43;;
69226;SDS011;56334;52.398;7.552;2023-02-15T05:49:32;22.73;;;9.50;;
69226;SDS011;56334;52.398;7.552;2023-02-15T05:51:59;19.17;;;7.88;;
69226;SDS011;56334;52.398;7.552;2023-02-15T05:54:25;23.92;;;9.75;;
69226;SDS011;56334;52.398;7.552;2023-02-15T05:56:51;24.98;;;10.95;;
69226;SDS011;56334;52.398;7.552;2023-02-15T05:59:17;23.15;;;9.75;;
69226;SDS011;56334;52.398;7.552;2023-02-15T06:01:43;24.48;;;10.93;;
69226;SDS011;56334;52.398;7.552;2023-02-15T06:04:09;23.20;;;9.55;;
69226;SDS011;56334;52.398;7.552;2023-02-15T06:06:35;25.30;;;11.02;;
69226;SDS011;56334;52.398;7.552;2023-02-15T06:09:01;30.55;;;13.52;;
69226;SDS011;56334;52.398;7.552;2023-02-15T06:11:27;38.65;;;15.07;;
69226;SDS011;56334;52.398;7.552;2023-02-15T06:13:55;33.67;;;14.05;;
69226;SDS011;56334;52.398;7.552;2023-02-15T06:16:21;34.22;;;13.73;;
69226;SDS011;56334;52.398;7.552;2023-02-15T06:18:48;29.73;;;13.43;;
69226;SDS011;56334;52.398;7.552;2023-02-15T06:21:14;30.40;;;12.32;;
69226;SDS011;56334;52.398;7.552;2023-02-15T06:23:40;30.27;;;12.85;;
69226;SDS011;56334;52.398;7.552;2023-02-15T06:26:06;29.58;;;13.45;;
69226;SDS011;56334;52.398;7.552;2023-02-15T06:28:32;32.70;;;15.50;;
69226;SDS011;56334;52.398;7.552;2023-02-15T06:30:58;29.55;;;15.55;;
69226;SDS011;56334;52.398;7.552;2023-02-15T06:33:24;29.95;;;13.07;;
69226;SDS011;56334;52.398;7.552;2023-02-15T06:35:51;29.98;;;14.38;;
69226;SDS011;56334;52.398;7.552;2023-02-15T06:38:17;33.90;;;15.48;;
69226;SDS011;56334;52.398;7.552;2023-02-15T06:40:43;26.98;;;11.88;;
69226;SDS011;56334;52.398;7.552;2023-02-15T06:43:10;32.70;;;14.45;;
69226;SDS011;56334;52.398;7.552;2023-02-15T06:45:36;29.77;;;12.32;;
69226;SDS011;56334;52.398;7.552;2023-02-15T06:48:02;32.00;;;13.73;;
69226;SDS011;56334;52.398;7.552;2023-02-15T06:50:28;33.72;;;12.30;;
69226;SDS011;56334;52.398;7.552;2023-02-15T06:52:55;29.00;;;13.05;;
69226;SDS011;56334;52.398;7.552;2023-02-15T06:55:21;29.10;;;11.02;;
69226;SDS011;56334;52.398;7.552;2023-02-15T06:57:47;29.05;;;11.93;;
69226;SDS011;56334;52.398;7.552;2023-02-15T07:00:15;24.27;;;10.73;;
69226;SDS011;56334;52.398;7.552;2023-02-15T07:02:42;28.13;;;11.38;;
69226;SDS011;56334;52.398;7.552;2023-02-15T07:05:11;23.50;;;10.43;;
69226;SDS011;56334;52.398;7.552;2023-02-15T07:07:37;26.67;;;10.93;;
69226;SDS011;56334;52.398;7.552;2023-02-15T07:10:03;25.73;;;9.65;;
69226;SDS011;56334;52.398;7.552;2023-02-15T07:12:31;30.80;;;11.25;;
69226;SDS011;56334;52.398;7.552;2023-02-15T07:15:11;29.45;;;11.65;;
69226;SDS011;56334;52.398;7.552;2023-02-15T07:17:37;26.58;;;10.38;;
69226;SDS011;56334;52.398;7.552;2023-02-15T07:20:04;27.70;;;10.82;;
69226;SDS011;56334;52.398;7.552;2023-02-15T07:22:31;26.58;;;11.00;;
69226;SDS011;56334;52.398;7.552;2023-02-15T07:27:24;26.10;;;10.70;;
69226;SDS011;56334;52.398;7.552;2023-02-15T07:29:50;26.42;;;12.10;;
69226;SDS011;56334;52.398;7.552;2023-02-15T07:32:16;28.05;;;11.95;;
69226;SDS011;56334;52.398;7.552;2023-02-15T07:34:42;33.73;;;13.53;;
69226;SDS011;56334;52.398;7.552;2023-02-15T07:37:08;28.17;;;13.18;;
69226;SDS011;56334;52.398;7.552;2023-02-15T07:39:34;30.42;;;13.48;;
69226;SDS011;56334;52.398;7.552;2023-02-15T07:42:00;32.28;;;13.07;;
69226;SDS011;56334;52.398;7.552;2023-02-15T07:44:26;23.73;;;10.15;;
69226;SDS011;56334;52.398;7.552;2023-02-15T07:46:52;28.25;;;13.35;;
69226;SDS011;56334;52.398;7.552;2023-02-15T07:49:18;30.33;;;14.63;;
69226;SDS011;56334;52.398;7.552;2023-02-15T07:51:45;33.10;;;16.58;;
69226;SDS011;56334;52.398;7.552;2023-02-15T07:54:11;23.23;;;10.88;;
69226;SDS011;56334;52.398;7.552;2023-02-15T07:56:37;27.17;;;12.98;;
69226;SDS011;56334;52.398;7.552;2023-02-15T07:59:03;31.90;;;14.60;;
69226;SDS011;56334;52.398;7.552;2023-02-15T08:01:33;29.67;;;12.45;;
69226;SDS011;56334;52.398;7.552;2023-02-15T08:04:00;30.83;;;13.10;;
69226;SDS011;56334;52.398;7.552;2023-02-15T08:06:27;28.90;;;12.82;;
69226;SDS011;56334;52.398;7.552;2023-02-15T08:08:53;33.78;;;15.23;;
69226;SDS011;56334;52.398;7.552;2023-02-15T08:11:28;29.50;;;14.00;;
69226;SDS011;56334;52.398;7.552;2023-02-15T08:16:34;30.83;;;14.85;;
69226;SDS011;56334;52.398;7.552;2023-02-15T08:19:01;29.08;;;12.98;;
69226;SDS011;56334;52.398;7.552;2023-02-15T08:21:28;30.65;;;12.93;;
69226;SDS011;56334;52.398;7.552;2023-02-15T08:23:55;30.58;;;13.27;;
69226;SDS011;56334;52.398;7.552;2023-02-15T08:26:21;31.95;;;14.07;;
69226;SDS011;56334;52.398;7.552;2023-02-15T08:28:47;28.58;;;12.10;;
69226;SDS011;56334;52.398;7.552;2023-02-15T08:31:15;27.33;;;13.52;;
69226;SDS011;56334;52.398;7.552;2023-02-15T08:33:42;27.83;;;12.55;;
69226;SDS011;56334;52.398;7.552;2023-02-15T08:36:09;27.02;;;11.98;;
69226;SDS011;56334;52.398;7.552;2023-02-15T08:38:35;28.50;;;12.45;;
69226;SDS011;56334;52.398;7.552;2023-02-15T08:43:37;27.85;;;12.43;;
69226;SDS011;56334;52.398;7.552;2023-02-15T08:46:04;32.10;;;13.70;;
69226;SDS011;56334;52.398;7.552;2023-02-15T08:48:30;27.30;;;12.60;;
69226;SDS011;56334;52.398;7.552;2023-02-15T08:50:56;26.67;;;11.85;;
69226;SDS011;56334;52.398;7.552;2023-02-15T08:53:22;26.42;;;11.63;;
69226;SDS011;56334;52.398;7.552;2023-02-15T08:55:55;27.30;;;11.90;;
69226;SDS011;56334;52.398;7.552;2023-02-15T08:58:21;26.10;;;12.18;;
69226;SDS011;56334;52.398;7.552;2023-02-15T09:00:47;29.38;;;13.88;;
69226;SDS011;56334;52.398;7.552;2023-02-15T09:03:13;27.48;;;12.80;;
69226;SDS011;56334;52.398;7.552;2023-02-15T09:05:39;27.17;;;13.18;;
69226;SDS011;56334;52.398;7.552;2023-02-15T09:08:05;28.67;;;13.20;;
69226;SDS011;56334;52.398;7.552;2023-02-15T09:10:31;28.10;;;12.63;;
69226;SDS011;56334;52.398;7.552;2023-02-15T09:12:57;29.73;;;13.50;;
69226;SDS011;56334;52.398;7.552;2023-02-15T09:15:23;28.48;;;13.23;;
69226;SDS011;56334;52.398;7.552;2023-02-15T09:17:49;27.23;;;12.75;;
69226;SDS011;56334;52.398;7.552;2023-02-15T09:20:15;31.23;;;13.85;;
69226;SDS011;56334;52.398;7.552;2023-02-15T09:22:42;28.40;;;14.02;;
69226;SDS011;56334;52.398;7.552;2023-02-15T09:25:08;28.95;;;12.05;;
69226;SDS011;56334;52.398;7.552;2023-02-15T09:27:34;25.40;;;11.63;;
69226;SDS011;56334;52.398;7.552;2023-02-15T09:30:01;29.80;;;12.93;;
69226;SDS011;56334;52.398;7.552;2023-02-15T09:32:27;30.33;;;13.10;;
69226;SDS011;56334;52.398;7.552;2023-02-15T09:34:54;28.33;;;13.10;;
69226;SDS011;56334;52.398;7.552;2023-02-15T09:37:20;34.03;;;14.27;;
69226;SDS011;56334;52.398;7.552;2023-02-15T09:39:47;29.60;;;13.05;;
69226;SDS011;56334;52.398;7.552;2023-02-15T09:55:19;29.63;;;14.15;;
69226;SDS011;56334;52.398;7.552;2023-02-15T09:58:14;29.58;;;13.07;;
69226;SDS011;56334;52.398;7.552;2023-02-15T10:00:46;28.90;;;13.57;;
69226;SDS011;56334;52.398;7.552;2023-02-15T10:03:23;33.50;;;14.25;;
69226;SDS011;56334;52.398;7.552;2023-02-15T10:08:54;29.33;;;12.77;;
69226;SDS011;56334;52.398;7.552;2023-02-15T10:11:44;31.92;;;13.95;;
69226;SDS011;56334;52.398;7.552;2023-02-15T10:14:21;30.02;;;13.15;;
69226;SDS011;56334;52.398;7.552;2023-02-15T10:17:02;30.63;;;13.27;;
69226;SDS011;56334;52.398;7.552;2023-02-15T10:19:40;30.85;;;14.00;;
69226;SDS011;56334;52.398;7.552;2023-02-15T10:27:19;32.28;;;14.98;;
69226;SDS011;56334;52.398;7.552;2023-02-15T10:29:49;33.03;;;14.93;;
69226;SDS011;56334;52.398;7.552;2023-02-15T10:32:23;29.38;;;13.73;;
69226;SDS011;56334;52.398;7.552;2023-02-15T10:43:14;32.47;;;14.35;;
69226;SDS011;56334;52.398;7.552;2023-02-15T10:46:02;34.75;;;15.50;;
69226;SDS011;56334;52.398;7.552;2023-02-15T10:50:57;33.90;;;14.25;;
69226;SDS011;56334;52.398;7.552;2023-02-15T11:06:29;34.88;;;16.10;;
69226;SDS011;56334;52.398;7.552;2023-02-15T11:09:01;33.28;;;15.75;;
69226;SDS011;56334;52.398;7.552;2023-02-15T11:11:29;35.22;;;15.23;;
69226;SDS011;56334;52.398;7.552;2023-02-15T11:13:58;32.55;;;15.82;;
69226;SDS011;56334;52.398;7.552;2023-02-15T11:16:27;33.20;;;15.75;;
69226;SDS011;56334;52.398;7.552;2023-02-15T11:18:56;31.85;;;16.35;;
69226;SDS011;56334;52.398;7.552;2023-02-15T11:21:31;34.92;;;16.65;;
69226;SDS011;56334;52.398;7.552;2023-02-15T11:23:57;38.85;;;17.38;;
69226;SDS011;56334;52.398;7.552;2023-02-15T11:26:34;35.30;;;17.63;;
69226;SDS011;56334;52.398;7.552;2023-02-15T11:29:13;33.38;;;16.67;;
69226;SDS011;56334;52.398;7.552;2023-02-15T11:31:47;35.80;;;15.85;;
69226;SDS011;56334;52.398;7.552;2023-02-15T11:34:29;37.00;;;17.00;;
69226;SDS011;56334;52.398;7.552;2023-02-15T11:36:55;38.10;;;16.95;;
69226;SDS011;56334;52.398;7.552;2023-02-15T11:39:24;37.15;;;16.98;;
69226;SDS011;56334;52.398;7.552;2023-02-15T11:41:59;37.38;;;17.38;;
69226;SDS011;56334;52.398;7.552;2023-02-15T11:46:54;33.08;;;16.00;;
69226;SDS011;56334;52.398;7.552;2023-02-15T11:51:49;34.55;;;17.40;;
69226;SDS011;56334;52.398;7.552;2023-02-15T11:54:20;37.50;;;17.45;;
69226;SDS011;56334;52.398;7.552;2023-02-15T11:56:47;32.47;;;17.00;;
69226;SDS011;56334;52.398;7.552;2023-02-15T11:59:16;37.75;;;16.95;;
69226;SDS011;56334;52.398;7.552;2023-02-15T12:01:44;34.80;;;17.25;;
69226;SDS011;56334;52.398;7.552;2023-02-15T12:04:21;35.13;;;17.25;;
69226;SDS011;56334;52.398;7.552;2023-02-15T12:06:56;39.72;;;17.95;;
69226;SDS011;56334;52.398;7.552;2023-02-15T12:14:51;34.45;;;15.90;;
69226;SDS011;56334;52.398;7.552;2023-02-15T12:17:17;31.00;;;15.48;;
69226;SDS011;56334;52.398;7.552;2023-02-15T12:19:44;37.42;;;16.58;;
69226;SDS011;56334;52.398;7.552;2023-02-15T12:22:49;35.80;;;16.58;;
69226;SDS011;56334;52.398;7.552;2023-02-15T12:25:24;34.67;;;15.57;;
69226;SDS011;56334;52.398;7.552;2023-02-15T12:27:51;32.92;;;16.00;;
69226;SDS011;56334;52.398;7.552;2023-02-15T12:32:51;35.60;;;18.05;;
69226;SDS011;56334;52.398;7.552;2023-02-15T12:35:25;36.95;;;17.67;;
69226;SDS011;56334;52.398;7.552;2023-02-15T12:37:54;33.63;;;16.33;;
69226;SDS011;56334;52.398;7.552;2023-02-15T12:40:27;32.35;;;15.85;;
69226;SDS011;56334;52.398;7.552;2023-02-15T12:42:53;31.63;;;15.82;;
69226;SDS011;56334;52.398;7.552;2023-02-15T12:45:29;32.72;;;16.52;;
69226;SDS011;56334;52.398;7.552;2023-02-15T12:48:09;33.80;;;16.50;;
69226;SDS011;56334;52.398;7.552;2023-02-15T12:50:35;34.42;;;16.20;;
69226;SDS011;56334;52.398;7.552;2023-02-15T12:53:07;33.53;;;15.48;;
69226;SDS011;56334;52.398;7.552;2023-02-15T12:55:33;34.53;;;16.85;;
69226;SDS011;56334;52.398;7.552;2023-02-15T12:58:15;33.28;;;16.60;;
69226;SDS011;56334;52.398;7.552;2023-02-15T13:00:42;32.00;;;16.20;;
69226;SDS011;56334;52.398;7.552;2023-02-15T13:03:15;33.85;;;16.15;;
69226;SDS011;56334;52.398;7.552;2023-02-15T13:05:43;34.10;;;16.88;;
69226;SDS011;56334;52.398;7.552;2023-02-15T13:08:17;34.10;;;17.10;;
69226;SDS011;56334;52.398;7.552;2023-02-15T13:11:02;35.90;;;17.17;;
69226;SDS011;56334;52.398;7.552;2023-02-15T13:13:33;34.47;;;16.63;;
69226;SDS011;56334;52.398;7.552;2023-02-15T13:16:04;34.70;;;17.00;;
69226;SDS011;56334;52.398;7.552;2023-02-15T13:18:34;37.58;;;17.75;;
69226;SDS011;56334;52.398;7.552;2023-02-15T13:21:04;35.03;;;16.92;;
69226;SDS011;56334;52.398;7.552;2023-02-15T13:23:30;35.60;;;17.60;;
69226;SDS011;56334;52.398;7.552;2023-02-15T13:25:58;38.28;;;18.33;;
69226;SDS011;56334;52.398;7.552;2023-02-15T13:28:32;38.05;;;19.25;;
69226;SDS011;56334;52.398;7.552;2023-02-15T13:31:00;37.67;;;18.15;;
69226;SDS011;56334;52.398;7.552;2023-02-15T13:33:27;36.67;;;18.65;;
69226;SDS011;56334;52.398;7.552;2023-02-15T13:40:55;38.75;;;18.73;;
69226;SDS011;56334;52.398;7.552;2023-02-15T13:48:44;37.58;;;18.45;;
69226;SDS011;56334;52.398;7.552;2023-02-15T13:51:21;39.83;;;19.60;;
69226;SDS011;56334;52.398;7.552;2023-02-15T13:58:56;36.60;;;17.48;;
69226;SDS011;56334;52.398;7.552;2023-02-15T14:07:16;37.90;;;18.75;;
69226;SDS011;56334;52.398;7.552;2023-02-15T14:10:34;40.78;;;18.77;;
69226;SDS011;56334;52.398;7.552;2023-02-15T14:15:29;40.58;;;18.17;;
69226;SDS011;56334;52.398;7.552;2023-02-15T14:20:39;37.28;;;18.45;;
69226;SDS011;56334;52.398;7.552;2023-02-15T14:23:20;37.92;;;17.63;;
69226;SDS011;56334;52.398;7.552;2023-02-15T14:25:57;38.35;;;18.40;;
69226;SDS011;56334;52.398;7.552;2023-02-15T14:28:40;37.63;;;17.85;;
69226;SDS011;56334;52.398;7.552;2023-02-15T14:31:07;32.05;;;15.82;;
69226;SDS011;56334;52.398;7.552;2023-02-15T14:33:39;35.67;;;17.67;;
69226;SDS011;56334;52.398;7.552;2023-02-15T14:36:06;36.17;;;16.90;;
69226;SDS011;56334;52.398;7.552;2023-02-15T14:41:17;35.45;;;17.33;;
69226;SDS011;56334;52.398;7.552;2023-02-15T14:46:19;35.05;;;17.08;;
69226;SDS011;56334;52.398;7.552;2023-02-15T14:53:57;38.13;;;18.80;;
69226;SDS011;56334;52.398;7.552;2023-02-15T14:56:24;39.10;;;18.67;;
69226;SDS011;56334;52.398;7.552;2023-02-15T15:03:50;39.50;;;17.55;;
69226;SDS011;56334;52.398;7.552;2023-02-15T15:07:04;36.33;;;16.73;;
69226;SDS011;56334;52.398;7.552;2023-02-15T15:09:27;38.50;;;18.15;;
69226;SDS011;56334;52.398;7.552;2023-02-15T15:11:54;37.90;;;18.95;;
69226;SDS011;56334;52.398;7.552;2023-02-15T15:17:00;37.50;;;18.17;;
69226;SDS011;56334;52.398;7.552;2023-02-15T15:22:21;44.10;;;19.85;;
69226;SDS011;56334;52.398;7.552;2023-02-15T15:24:55;40.38;;;19.95;;
69226;SDS011;56334;52.398;7.552;2023-02-15T15:38:21;44.55;;;21.52;;
69226;SDS011;56334;52.398;7.552;2023-02-15T15:41:03;38.47;;;19.10;;
69226;SDS011;56334;52.398;7.552;2023-02-15T15:46:18;40.38;;;19.13;;
69226;SDS011;56334;52.398;7.552;2023-02-15T15:48:47;40.95;;;19.45;;
69226;SDS011;56334;52.398;7.552;2023-02-15T15:51:15;38.45;;;18.17;;
69226;SDS011;56334;52.398;7.552;2023-02-15T15:53:45;35.22;;;16.15;;
69226;SDS011;56334;52.398;7.552;2023-02-15T15:56:15;40.25;;;18.35;;
69226;SDS011;56334;52.398;7.552;2023-02-15T15:58:43;40.20;;;17.85;;
69226;SDS011;56334;52.398;7.552;2023-02-15T16:01:10;38.17;;;17.25;;
69226;SDS011;56334;52.398;7.552;2023-02-15T16:03:47;38.42;;;17.42;;
69226;SDS011;56334;52.398;7.552;2023-02-15T16:06:26;36.28;;;16.10;;
69226;SDS011;56334;52.398;7.552;2023-02-15T16:08:53;39.58;;;18.15;;
69226;SDS011;56334;52.398;7.552;2023-02-15T16:11:21;35.03;;;17.25;;
69226;SDS011;56334;52.398;7.552;2023-02-15T16:13:49;37.58;;;17.63;;
69226;SDS011;56334;52.398;7.552;2023-02-15T16:16:22;38.95;;;18.00;;
69226;SDS011;56334;52.398;7.552;2023-02-15T16:18:49;41.15;;;18.05;;
69226;SDS011;56334;52.398;7.552;2023-02-15T16:21:18;37.75;;;17.42;;
69226;SDS011;56334;52.398;7.552;2023-02-15T16:26:18;45.88;;;20.58;;
69226;SDS011;56334;52.398;7.552;2023-02-15T16:28:51;54.53;;;25.45;;
69226;SDS011;56334;52.398;7.552;2023-02-15T16:31:18;56.30;;;26.92;;
69226;SDS011;56334;52.398;7.552;2023-02-15T16:33:44;58.10;;;26.45;;
69226;SDS011;56334;52.398;7.552;2023-02-15T16:41:13;50.47;;;23.30;;
69226;SDS011;56334;52.398;7.552;2023-02-15T16:43:42;45.95;;;20.70;;
69226;SDS011;56334;52.398;7.552;2023-02-15T16:46:15;38.38;;;17.20;;
69226;SDS011;56334;52.398;7.552;2023-02-15T16:48:42;40.17;;;17.88;;
69226;SDS011;56334;52.398;7.552;2023-02-15T16:51:09;34.38;;;16.45;;
69226;SDS011;56334;52.398;7.552;2023-02-15T16:53:35;39.60;;;17.17;;
69226;SDS011;56334;52.398;7.552;2023-02-15T16:56:02;35.67;;;16.15;;
69226;SDS011;56334;52.398;7.552;2023-02-15T17:01:08;35.33;;;14.93;;
69226;SDS011;56334;52.398;7.552;2023-02-15T17:03:37;38.55;;;17.13;;
69226;SDS011;56334;52.398;7.552;2023-02-15T17:06:03;39.35;;;16.35;;
69226;SDS011;56334;52.398;7.552;2023-02-15T17:08:30;38.90;;;17.35;;
69226;SDS011;56334;52.398;7.552;2023-02-15T17:13:32;38.42;;;16.58;;
69226;SDS011;56334;52.398;7.552;2023-02-15T17:18:25;39.28;;;16.38;;